sensor_id;sensor_type;location;lat;lon;timestamp;P1;durP1;ratioP1;P2;durP2;ratioP2
12363;SDS011;6246;50.826;4.712;2023-02-25T00:01:52;15.17;;;8.30;;
12363;SDS011;6246;50.826;4.712;2023-02-25T00:04:19;13.90;;;8.60;;
12363;SDS011;6246;50.826;4.712;2023-02-25T00:06:45;15.20;;;8.37;;
12363;SDS011;6246;50.826;4.712;2023-02-25T00:09:11;13.10;;;9.00;;
12363;SDS011;6246;50.826;4.712;2023-02-25T00:11:37;13.60;;;8.53;;
12363;SDS011;6246;50.826;4.712;2023-02-25T00:14:03;12.90;;;9.27;;
12363;SDS011;6246;50.826;4.712;2023-02-25T00:16:29;13.40;;;9.30;;
12363;SDS011;6246;50.826;4.712;2023-02-25T00:18:57;13.53;;;9.17;;
12363;SDS011;6246;50.826;4.712;2023-02-25T00:21:23;16.43;;;9.37;;
12363;SDS011;6246;50.826;4.712;2023-02-25T00:23:50;15.53;;;10.60;;
12363;SDS011;6246;50.826;4.712;2023-02-25T00:26:17;15.87;;;9.60;;
12363;SDS011;6246;50.826;4.712;2023-02-25T00:28:44;13.07;;;9.17;;
12363;SDS011;6246;50.826;4.712;2023-02-25T00:31:14;13.00;;;9.03;;
12363;SDS011;6246;50.826;4.712;2023-02-25T00:33:41;13.03;;;9.43;;
12363;SDS011;6246;50.826;4.712;2023-02-25T00:36:08;13.60;;;9.40;;
12363;SDS011;6246;50.826;4.712;2023-02-25T00:38:34;15.63;;;8.87;;
12363;SDS011;6246;50.826;4.712;2023-02-25T00:41:10;13.77;;;9.90;;
12363;SDS011;6246;50.826;4.712;2023-02-25T00:43:39;16.80;;;9.23;;
12363;SDS011;6246;50.826;4.712;2023-02-25T00:46:11;21.80;;;9.57;;
12363;SDS011;6246;50.826;4.712;2023-02-25T00:48:37;14.13;;;8.63;;
12363;SDS011;6246;50.826;4.712;2023-02-25T00:51:07;13.13;;;8.97;;
12363;SDS011;6246;50.826;4.712;2023-02-25T00:53:33;15.23;;;9.20;;
12363;SDS011;6246;50.826;4.712;2023-02-25T00:56:00;12.37;;;8.83;;
12363;SDS011;6246;50.826;4.712;2023-02-25T00:58:26;14.20;;;9.30;;
12363;SDS011;6246;50.826;4.712;2023-02-25T01:00:52;14.30;;;9.50;;
12363;SDS011;6246;50.826;4.712;2023-02-25T01:03:18;16.07;;;9.43;;
12363;SDS011;6246;50.826;4.712;2023-02-25T01:05:44;13.67;;;8.50;;
12363;SDS011;6246;50.826;4.712;2023-02-25T01:08:17;14.40;;;8.80;;
12363;SDS011;6246;50.826;4.712;2023-02-25T01:10:44;14.07;;;8.53;;
12363;SDS011;6246;50.826;4.712;2023-02-25T01:13:10;16.80;;;8.63;;
12363;SDS011;6246;50.826;4.712;2023-02-25T01:15:36;13.13;;;8.77;;
12363;SDS011;6246;50.826;4.712;2023-02-25T01:18:02;12.70;;;9.13;;
12363;SDS011;6246;50.826;4.712;2023-02-25T01:20:28;16.90;;;8.77;;
12363;SDS011;6246;50.826;4.712;2023-02-25T01:22:55;13.20;;;8.80;;
12363;SDS011;6246;50.826;4.712;2023-02-25T01:25:21;12.40;;;8.63;;
12363;SDS011;6246;50.826;4.712;2023-02-25T01:27:52;12.53;;;8.30;;
12363;SDS011;6246;50.826;4.712;2023-02-25T01:30:18;12.03;;;8.20;;
12363;SDS011;6246;50.826;4.712;2023-02-25T01:32:44;13.33;;;8.70;;
12363;SDS011;6246;50.826;4.712;2023-02-25T01:35:11;12.20;;;8.23;;
12363;SDS011;6246;50.826;4.712;2023-02-25T01:37:37;12.13;;;7.90;;
12363;SDS011;6246;50.826;4.712;2023-02-25T01:40:03;10.33;;;7.97;;
12363;SDS011;6246;50.826;4.712;2023-02-25T01:42:30;13.37;;;8.20;;
12363;SDS011;6246;50.826;4.712;2023-02-25T01:47:41;12.17;;;8.30;;
12363;SDS011;6246;50.826;4.712;2023-02-25T01:50:09;13.77;;;7.63;;
12363;SDS011;6246;50.826;4.712;2023-02-25T01:52:36;14.73;;;8.03;;
12363;SDS011;6246;50.826;4.712;2023-02-25T01:55:04;10.53;;;7.50;;
12363;SDS011;6246;50.826;4.712;2023-02-25T01:57:30;10.47;;;7.30;;
12363;SDS011;6246;50.826;4.712;2023-02-25T01:59:56;12.13;;;6.97;;
12363;SDS011;6246;50.826;4.712;2023-02-25T02:02:22;14.30;;;8.03;;
12363;SDS011;6246;50.826;4.712;2023-02-25T02:04:51;11.53;;;7.40;;
12363;SDS011;6246;50.826;4.712;2023-02-25T02:07:18;9.93;;;6.83;;
12363;SDS011;6246;50.826;4.712;2023-02-25T02:09:44;11.07;;;7.03;;
12363;SDS011;6246;50.826;4.712;2023-02-25T02:12:53;10.73;;;7.47;;
12363;SDS011;6246;50.826;4.712;2023-02-25T02:15:13;11.20;;;7.40;;
12363;SDS011;6246;50.826;4.712;2023-02-25T02:20:14;10.57;;;7.27;;
12363;SDS011;6246;50.826;4.712;2023-02-25T02:36:03;9.33;;;6.47;;
12363;SDS011;6246;50.826;4.712;2023-02-25T02:41:43;11.13;;;6.40;;
12363;SDS011;6246;50.826;4.712;2023-02-25T02:43:56;9.77;;;6.23;;
12363;SDS011;6246;50.826;4.712;2023-02-25T02:46:29;9.57;;;6.23;;
12363;SDS011;6246;50.826;4.712;2023-02-25T02:48:58;7.27;;;5.77;;
12363;SDS011;6246;50.826;4.712;2023-02-25T02:51:30;9.73;;;5.93;;
12363;SDS011;6246;50.826;4.712;2023-02-25T02:53:59;7.63;;;5.40;;
12363;SDS011;6246;50.826;4.712;2023-02-25T02:56:26;9.53;;;5.70;;
12363;SDS011;6246;50.826;4.712;2023-02-25T03:01:31;7.90;;;5.50;;
12363;SDS011;6246;50.826;4.712;2023-02-25T03:03:59;9.70;;;5.60;;
12363;SDS011;6246;50.826;4.712;2023-02-25T03:06:27;9.47;;;6.20;;
12363;SDS011;6246;50.826;4.712;2023-02-25T03:08:59;8.50;;;5.67;;
12363;SDS011;6246;50.826;4.712;2023-02-25T03:11:26;7.47;;;5.40;;
12363;SDS011;6246;50.826;4.712;2023-02-25T03:13:52;10.90;;;5.77;;
12363;SDS011;6246;50.826;4.712;2023-02-25T03:16:24;9.97;;;5.30;;
12363;SDS011;6246;50.826;4.712;2023-02-25T03:18:56;6.63;;;4.90;;
12363;SDS011;6246;50.826;4.712;2023-02-25T03:21:25;7.50;;;5.23;;
12363;SDS011;6246;50.826;4.712;2023-02-25T03:23:52;5.70;;;4.67;;
12363;SDS011;6246;50.826;4.712;2023-02-25T03:26:24;8.70;;;5.20;;
12363;SDS011;6246;50.826;4.712;2023-02-25T03:28:52;5.60;;;4.80;;
12363;SDS011;6246;50.826;4.712;2023-02-25T03:31:19;6.83;;;5.20;;
12363;SDS011;6246;50.826;4.712;2023-02-25T03:33:50;6.77;;;5.03;;
12363;SDS011;6246;50.826;4.712;2023-02-25T03:36:18;9.43;;;5.17;;
12363;SDS011;6246;50.826;4.712;2023-02-25T03:38:47;6.47;;;4.80;;
12363;SDS011;6246;50.826;4.712;2023-02-25T03:41:15;7.37;;;5.00;;
12363;SDS011;6246;50.826;4.712;2023-02-25T03:43:45;8.43;;;4.70;;
12363;SDS011;6246;50.826;4.712;2023-02-25T03:46:13;6.87;;;4.57;;
12363;SDS011;6246;50.826;4.712;2023-02-25T03:48:39;6.83;;;4.83;;
12363;SDS011;6246;50.826;4.712;2023-02-25T03:51:06;5.33;;;4.43;;
12363;SDS011;6246;50.826;4.712;2023-02-25T03:53:33;7.80;;;4.83;;
12363;SDS011;6246;50.826;4.712;2023-02-25T03:56:02;6.40;;;4.50;;
12363;SDS011;6246;50.826;4.712;2023-02-25T03:58:36;6.37;;;4.27;;
12363;SDS011;6246;50.826;4.712;2023-02-25T04:01:06;6.73;;;4.37;;
12363;SDS011;6246;50.826;4.712;2023-02-25T04:03:34;5.83;;;3.90;;
12363;SDS011;6246;50.826;4.712;2023-02-25T04:06:00;11.47;;;4.27;;
12363;SDS011;6246;50.826;4.712;2023-02-25T04:08:26;6.83;;;4.50;;
12363;SDS011;6246;50.826;4.712;2023-02-25T04:10:52;6.40;;;4.00;;
12363;SDS011;6246;50.826;4.712;2023-02-25T04:13:18;8.90;;;4.40;;
12363;SDS011;6246;50.826;4.712;2023-02-25T04:15:45;6.10;;;4.00;;
12363;SDS011;6246;50.826;4.712;2023-02-25T04:18:11;8.50;;;4.43;;
12363;SDS011;6246;50.826;4.712;2023-02-25T04:20:37;5.13;;;3.80;;
12363;SDS011;6246;50.826;4.712;2023-02-25T04:23:05;5.83;;;4.07;;
12363;SDS011;6246;50.826;4.712;2023-02-25T04:25:31;5.33;;;3.97;;
12363;SDS011;6246;50.826;4.712;2023-02-25T04:27:57;9.93;;;3.90;;
12363;SDS011;6246;50.826;4.712;2023-02-25T04:30:23;5.70;;;4.20;;
12363;SDS011;6246;50.826;4.712;2023-02-25T04:32:49;6.83;;;4.37;;
12363;SDS011;6246;50.826;4.712;2023-02-25T04:35:16;6.40;;;4.13;;
12363;SDS011;6246;50.826;4.712;2023-02-25T04:37:42;4.90;;;3.53;;
12363;SDS011;6246;50.826;4.712;2023-02-25T04:40:12;4.67;;;3.63;;
12363;SDS011;6246;50.826;4.712;2023-02-25T04:42:39;6.37;;;3.80;;
12363;SDS011;6246;50.826;4.712;2023-02-25T04:45:06;5.97;;;3.97;;
12363;SDS011;6246;50.826;4.712;2023-02-25T04:47:32;6.07;;;4.00;;
12363;SDS011;6246;50.826;4.712;2023-02-25T04:49:58;5.03;;;3.37;;
12363;SDS011;6246;50.826;4.712;2023-02-25T04:52:24;6.20;;;3.23;;
12363;SDS011;6246;50.826;4.712;2023-02-25T04:54:50;4.07;;;3.37;;
12363;SDS011;6246;50.826;4.712;2023-02-25T04:57:16;6.20;;;3.67;;
12363;SDS011;6246;50.826;4.712;2023-02-25T04:59:42;5.17;;;3.80;;
12363;SDS011;6246;50.826;4.712;2023-02-25T05:02:08;7.20;;;3.60;;
12363;SDS011;6246;50.826;4.712;2023-02-25T05:04:35;4.97;;;2.87;;
12363;SDS011;6246;50.826;4.712;2023-02-25T05:07:02;5.60;;;3.40;;
12363;SDS011;6246;50.826;4.712;2023-02-25T05:09:28;4.57;;;3.40;;
12363;SDS011;6246;50.826;4.712;2023-02-25T05:11:54;5.40;;;3.60;;
12363;SDS011;6246;50.826;4.712;2023-02-25T05:14:20;5.83;;;3.60;;
12363;SDS011;6246;50.826;4.712;2023-02-25T05:16:46;3.77;;;2.63;;
12363;SDS011;6246;50.826;4.712;2023-02-25T05:19:16;4.63;;;2.97;;
12363;SDS011;6246;50.826;4.712;2023-02-25T05:21:42;5.10;;;3.00;;
12363;SDS011;6246;50.826;4.712;2023-02-25T05:24:09;7.03;;;3.23;;
12363;SDS011;6246;50.826;4.712;2023-02-25T05:26:36;6.37;;;3.80;;
12363;SDS011;6246;50.826;4.712;2023-02-25T05:29:02;9.10;;;3.70;;
12363;SDS011;6246;50.826;4.712;2023-02-25T05:31:28;3.43;;;2.83;;
12363;SDS011;6246;50.826;4.712;2023-02-25T05:33:55;4.50;;;2.90;;
12363;SDS011;6246;50.826;4.712;2023-02-25T05:36:21;3.23;;;2.90;;
12363;SDS011;6246;50.826;4.712;2023-02-25T05:38:47;4.90;;;3.10;;
12363;SDS011;6246;50.826;4.712;2023-02-25T05:41:14;5.37;;;2.73;;
12363;SDS011;6246;50.826;4.712;2023-02-25T05:43:40;2.90;;;2.60;;
12363;SDS011;6246;50.826;4.712;2023-02-25T05:46:06;3.30;;;2.47;;
12363;SDS011;6246;50.826;4.712;2023-02-25T05:48:37;4.67;;;2.97;;
12363;SDS011;6246;50.826;4.712;2023-02-25T05:51:04;4.27;;;2.90;;
12363;SDS011;6246;50.826;4.712;2023-02-25T05:53:31;4.67;;;3.07;;
12363;SDS011;6246;50.826;4.712;2023-02-25T05:55:57;3.20;;;2.90;;
12363;SDS011;6246;50.826;4.712;2023-02-25T05:58:23;2.87;;;2.60;;
12363;SDS011;6246;50.826;4.712;2023-02-25T06:00:49;4.27;;;2.40;;
12363;SDS011;6246;50.826;4.712;2023-02-25T06:03:16;3.20;;;2.60;;
12363;SDS011;6246;50.826;4.712;2023-02-25T06:05:42;6.47;;;3.07;;
12363;SDS011;6246;50.826;4.712;2023-02-25T06:08:09;3.60;;;2.50;;
12363;SDS011;6246;50.826;4.712;2023-02-25T06:10:35;5.43;;;2.30;;
12363;SDS011;6246;50.826;4.712;2023-02-25T06:13:06;3.07;;;2.50;;
12363;SDS011;6246;50.826;4.712;2023-02-25T06:15:32;3.47;;;2.33;;
12363;SDS011;6246;50.826;4.712;2023-02-25T06:17:58;3.67;;;2.27;;
12363;SDS011;6246;50.826;4.712;2023-02-25T06:20:24;3.47;;;2.73;;
12363;SDS011;6246;50.826;4.712;2023-02-25T06:22:51;3.60;;;2.43;;
12363;SDS011;6246;50.826;4.712;2023-02-25T06:25:18;2.97;;;2.13;;
12363;SDS011;6246;50.826;4.712;2023-02-25T06:27:44;5.37;;;2.70;;
12363;SDS011;6246;50.826;4.712;2023-02-25T06:30:10;3.60;;;2.20;;
12363;SDS011;6246;50.826;4.712;2023-02-25T06:32:37;4.10;;;2.50;;
12363;SDS011;6246;50.826;4.712;2023-02-25T06:35:03;4.33;;;2.60;;
12363;SDS011;6246;50.826;4.712;2023-02-25T06:37:30;5.13;;;2.73;;
12363;SDS011;6246;50.826;4.712;2023-02-25T06:39:56;4.00;;;1.93;;
12363;SDS011;6246;50.826;4.712;2023-02-25T06:42:22;3.50;;;2.40;;
12363;SDS011;6246;50.826;4.712;2023-02-25T06:44:48;3.00;;;2.07;;
12363;SDS011;6246;50.826;4.712;2023-02-25T06:47:15;3.57;;;2.33;;
12363;SDS011;6246;50.826;4.712;2023-02-25T06:49:41;3.33;;;1.93;;
12363;SDS011;6246;50.826;4.712;2023-02-25T06:52:07;2.60;;;1.93;;
12363;SDS011;6246;50.826;4.712;2023-02-25T06:54:33;5.20;;;2.50;;
12363;SDS011;6246;50.826;4.712;2023-02-25T06:56:59;3.47;;;2.43;;
12363;SDS011;6246;50.826;4.712;2023-02-25T06:59:25;6.80;;;2.37;;
12363;SDS011;6246;50.826;4.712;2023-02-25T07:01:51;2.87;;;1.87;;
12363;SDS011;6246;50.826;4.712;2023-02-25T07:04:17;3.83;;;2.30;;
12363;SDS011;6246;50.826;4.712;2023-02-25T07:06:43;5.40;;;2.37;;
12363;SDS011;6246;50.826;4.712;2023-02-25T07:09:09;7.10;;;2.53;;
12363;SDS011;6246;50.826;4.712;2023-02-25T07:11:35;3.23;;;1.83;;
12363;SDS011;6246;50.826;4.712;2023-02-25T07:14:03;4.07;;;1.83;;
12363;SDS011;6246;50.826;4.712;2023-02-25T07:16:29;4.97;;;2.07;;
12363;SDS011;6246;50.826;4.712;2023-02-25T07:18:55;4.17;;;1.57;;
12363;SDS011;6246;50.826;4.712;2023-02-25T07:21:22;3.93;;;2.47;;
12363;SDS011;6246;50.826;4.712;2023-02-25T07:23:48;4.87;;;2.00;;
12363;SDS011;6246;50.826;4.712;2023-02-25T07:26:14;5.50;;;2.20;;
12363;SDS011;6246;50.826;4.712;2023-02-25T07:28:41;5.43;;;1.97;;
12363;SDS011;6246;50.826;4.712;2023-02-25T07:31:09;3.37;;;1.93;;
12363;SDS011;6246;50.826;4.712;2023-02-25T07:33:36;2.37;;;1.90;;
12363;SDS011;6246;50.826;4.712;2023-02-25T07:36:02;3.07;;;1.60;;
12363;SDS011;6246;50.826;4.712;2023-02-25T07:38:28;5.57;;;1.83;;
12363;SDS011;6246;50.826;4.712;2023-02-25T07:40:54;3.97;;;1.83;;
12363;SDS011;6246;50.826;4.712;2023-02-25T07:43:20;4.73;;;2.13;;
12363;SDS011;6246;50.826;4.712;2023-02-25T07:45:48;3.27;;;1.60;;
12363;SDS011;6246;50.826;4.712;2023-02-25T07:48:14;3.73;;;1.87;;
12363;SDS011;6246;50.826;4.712;2023-02-25T07:50:40;3.17;;;2.00;;
12363;SDS011;6246;50.826;4.712;2023-02-25T07:53:06;4.27;;;2.07;;
12363;SDS011;6246;50.826;4.712;2023-02-25T07:55:32;5.10;;;1.57;;
12363;SDS011;6246;50.826;4.712;2023-02-25T07:57:58;4.23;;;2.00;;
12363;SDS011;6246;50.826;4.712;2023-02-25T08:00:24;3.63;;;1.70;;
12363;SDS011;6246;50.826;4.712;2023-02-25T08:02:51;4.63;;;2.13;;
12363;SDS011;6246;50.826;4.712;2023-02-25T08:05:18;4.10;;;2.20;;
12363;SDS011;6246;50.826;4.712;2023-02-25T08:07:46;4.17;;;2.23;;
12363;SDS011;6246;50.826;4.712;2023-02-25T08:10:12;6.47;;;3.50;;
12363;SDS011;6246;50.826;4.712;2023-02-25T08:12:38;4.17;;;3.00;;
12363;SDS011;6246;50.826;4.712;2023-02-25T08:15:04;11.73;;;3.67;;
12363;SDS011;6246;50.826;4.712;2023-02-25T08:17:32;7.43;;;3.80;;
12363;SDS011;6246;50.826;4.712;2023-02-25T08:19:59;7.37;;;3.80;;
12363;SDS011;6246;50.826;4.712;2023-02-25T08:22:25;7.87;;;4.10;;
12363;SDS011;6246;50.826;4.712;2023-02-25T08:24:51;9.73;;;4.50;;
12363;SDS011;6246;50.826;4.712;2023-02-25T08:27:17;5.93;;;4.23;;
12363;SDS011;6246;50.826;4.712;2023-02-25T08:29:43;8.00;;;5.00;;
12363;SDS011;6246;50.826;4.712;2023-02-25T08:32:09;6.73;;;4.60;;
12363;SDS011;6246;50.826;4.712;2023-02-25T08:34:35;11.10;;;5.07;;
12363;SDS011;6246;50.826;4.712;2023-02-25T08:37:01;7.73;;;5.23;;
12363;SDS011;6246;50.826;4.712;2023-02-25T08:39:27;11.07;;;5.77;;
12363;SDS011;6246;50.826;4.712;2023-02-25T08:41:55;9.17;;;5.70;;
12363;SDS011;6246;50.826;4.712;2023-02-25T08:44:21;7.90;;;4.90;;
12363;SDS011;6246;50.826;4.712;2023-02-25T08:46:47;9.17;;;5.70;;
12363;SDS011;6246;50.826;4.712;2023-02-25T08:49:13;8.57;;;5.60;;
12363;SDS011;6246;50.826;4.712;2023-02-25T08:51:39;9.60;;;5.63;;
12363;SDS011;6246;50.826;4.712;2023-02-25T08:54:06;11.43;;;6.23;;
12363;SDS011;6246;50.826;4.712;2023-02-25T08:56:33;9.23;;;5.63;;
12363;SDS011;6246;50.826;4.712;2023-02-25T08:58:59;10.40;;;6.60;;
12363;SDS011;6246;50.826;4.712;2023-02-25T09:01:26;10.23;;;6.20;;
12363;SDS011;6246;50.826;4.712;2023-02-25T09:04:08;9.60;;;6.40;;
12363;SDS011;6246;50.826;4.712;2023-02-25T09:06:35;10.53;;;6.43;;
12363;SDS011;6246;50.826;4.712;2023-02-25T09:09:01;10.13;;;6.43;;
12363;SDS011;6246;50.826;4.712;2023-02-25T09:11:27;8.77;;;6.17;;
12363;SDS011;6246;50.826;4.712;2023-02-25T09:13:53;10.60;;;6.37;;
12363;SDS011;6246;50.826;4.712;2023-02-25T09:16:19;10.00;;;6.50;;
12363;SDS011;6246;50.826;4.712;2023-02-25T09:18:45;9.27;;;6.43;;
12363;SDS011;6246;50.826;4.712;2023-02-25T09:21:12;11.50;;;6.97;;
12363;SDS011;6246;50.826;4.712;2023-02-25T09:23:39;10.57;;;6.37;;
12363;SDS011;6246;50.826;4.712;2023-02-25T09:26:06;10.40;;;6.33;;
12363;SDS011;6246;50.826;4.712;2023-02-25T09:28:34;8.77;;;6.40;;
12363;SDS011;6246;50.826;4.712;2023-02-25T09:31:00;9.93;;;6.20;;
12363;SDS011;6246;50.826;4.712;2023-02-25T09:33:27;11.53;;;7.40;;
12363;SDS011;6246;50.826;4.712;2023-02-25T09:35:53;10.87;;;6.90;;
12363;SDS011;6246;50.826;4.712;2023-02-25T09:38:20;10.87;;;6.50;;
12363;SDS011;6246;50.826;4.712;2023-02-25T09:40:47;10.63;;;6.67;;
12363;SDS011;6246;50.826;4.712;2023-02-25T09:43:18;10.60;;;6.90;;
12363;SDS011;6246;50.826;4.712;2023-02-25T09:45:44;10.77;;;6.53;;
12363;SDS011;6246;50.826;4.712;2023-02-25T09:48:20;8.80;;;6.57;;
12363;SDS011;6246;50.826;4.712;2023-02-25T09:50:50;10.97;;;7.03;;
12363;SDS011;6246;50.826;4.712;2023-02-25T09:53:26;11.40;;;7.03;;
12363;SDS011;6246;50.826;4.712;2023-02-25T09:55:54;11.33;;;7.27;;
12363;SDS011;6246;50.826;4.712;2023-02-25T09:58:36;9.97;;;6.73;;
12363;SDS011;6246;50.826;4.712;2023-02-25T10:01:05;12.60;;;7.83;;
12363;SDS011;6246;50.826;4.712;2023-02-25T10:06:35;12.20;;;7.63;;
12363;SDS011;6246;50.826;4.712;2023-02-25T10:16:38;10.03;;;7.67;;
12363;SDS011;6246;50.826;4.712;2023-02-25T10:19:15;8.77;;;6.33;;
12363;SDS011;6246;50.826;4.712;2023-02-25T10:21:50;9.90;;;7.13;;
12363;SDS011;6246;50.826;4.712;2023-02-25T10:24:33;9.97;;;6.60;;
12363;SDS011;6246;50.826;4.712;2023-02-25T10:27:07;10.13;;;7.00;;
12363;SDS011;6246;50.826;4.712;2023-02-25T10:29:37;10.83;;;6.97;;
12363;SDS011;6246;50.826;4.712;2023-02-25T10:32:12;11.33;;;7.00;;
12363;SDS011;6246;50.826;4.712;2023-02-25T10:34:39;10.23;;;7.37;;
12363;SDS011;6246;50.826;4.712;2023-02-25T10:37:06;32.33;;;7.93;;
12363;SDS011;6246;50.826;4.712;2023-02-25T10:39:38;11.67;;;6.97;;
12363;SDS011;6246;50.826;4.712;2023-02-25T10:42:05;11.87;;;7.57;;
12363;SDS011;6246;50.826;4.712;2023-02-25T10:44:31;12.27;;;7.23;;
12363;SDS011;6246;50.826;4.712;2023-02-25T10:47:02;11.60;;;7.20;;
12363;SDS011;6246;50.826;4.712;2023-02-25T10:49:29;11.00;;;7.17;;
12363;SDS011;6246;50.826;4.712;2023-02-25T10:54:32;10.57;;;7.13;;
12363;SDS011;6246;50.826;4.712;2023-02-25T10:56:59;17.20;;;6.90;;
12363;SDS011;6246;50.826;4.712;2023-02-25T10:59:44;12.87;;;7.50;;
12363;SDS011;6246;50.826;4.712;2023-02-25T11:02:19;13.20;;;7.53;;
12363;SDS011;6246;50.826;4.712;2023-02-25T11:04:47;14.40;;;7.60;;
12363;SDS011;6246;50.826;4.712;2023-02-25T11:10:10;13.87;;;8.30;;
12363;SDS011;6246;50.826;4.712;2023-02-25T11:12:55;13.97;;;8.33;;
12363;SDS011;6246;50.826;4.712;2023-02-25T11:17:51;14.13;;;8.40;;
12363;SDS011;6246;50.826;4.712;2023-02-25T11:20:22;14.87;;;8.47;;
12363;SDS011;6246;50.826;4.712;2023-02-25T11:22:51;12.43;;;8.03;;
12363;SDS011;6246;50.826;4.712;2023-02-25T11:25:19;13.30;;;8.60;;
12363;SDS011;6246;50.826;4.712;2023-02-25T11:27:52;14.33;;;8.87;;
12363;SDS011;6246;50.826;4.712;2023-02-25T11:30:32;13.87;;;8.70;;
12363;SDS011;6246;50.826;4.712;2023-02-25T11:32:58;14.50;;;9.13;;
12363;SDS011;6246;50.826;4.712;2023-02-25T11:35:28;14.97;;;8.90;;
12363;SDS011;6246;50.826;4.712;2023-02-25T11:37:55;11.53;;;8.27;;
12363;SDS011;6246;50.826;4.712;2023-02-25T11:40:29;13.00;;;8.83;;
12363;SDS011;6246;50.826;4.712;2023-02-25T11:45:32;12.23;;;8.53;;
12363;SDS011;6246;50.826;4.712;2023-02-25T11:47:59;14.07;;;8.53;;
12363;SDS011;6246;50.826;4.712;2023-02-25T11:50:26;15.17;;;8.40;;
12363;SDS011;6246;50.826;4.712;2023-02-25T11:52:55;16.27;;;8.20;;
12363;SDS011;6246;50.826;4.712;2023-02-25T11:55:38;13.27;;;8.07;;
12363;SDS011;6246;50.826;4.712;2023-02-25T11:58:18;13.10;;;8.83;;
12363;SDS011;6246;50.826;4.712;2023-02-25T12:05:56;17.87;;;8.83;;
12363;SDS011;6246;50.826;4.712;2023-02-25T12:21:19;19.23;;;10.53;;
12363;SDS011;6246;50.826;4.712;2023-02-25T12:26:41;19.17;;;9.57;;
12363;SDS011;6246;50.826;4.712;2023-02-25T12:29:11;21.63;;;10.40;;
12363;SDS011;6246;50.826;4.712;2023-02-25T12:32:00;20.90;;;9.83;;
12363;SDS011;6246;50.826;4.712;2023-02-25T12:42:04;14.60;;;9.60;;
12363;SDS011;6246;50.826;4.712;2023-02-25T12:49:44;19.53;;;9.87;;
12363;SDS011;6246;50.826;4.712;2023-02-25T13:10:25;11.80;;;8.43;;
12363;SDS011;6246;50.826;4.712;2023-02-25T13:18:08;14.10;;;8.47;;
12363;SDS011;6246;50.826;4.712;2023-02-25T13:31:00;14.00;;;10.63;;
12363;SDS011;6246;50.826;4.712;2023-02-25T13:33:51;18.63;;;11.20;;
12363;SDS011;6246;50.826;4.712;2023-02-25T13:36:31;15.03;;;11.63;;
12363;SDS011;6246;50.826;4.712;2023-02-25T13:39:06;14.80;;;12.17;;
12363;SDS011;6246;50.826;4.712;2023-02-25T13:44:26;17.03;;;12.30;;
12363;SDS011;6246;50.826;4.712;2023-02-25T13:52:01;16.23;;;12.40;;
12363;SDS011;6246;50.826;4.712;2023-02-25T14:02:23;15.40;;;13.00;;
12363;SDS011;6246;50.826;4.712;2023-02-25T14:20:27;16.43;;;12.27;;
12363;SDS011;6246;50.826;4.712;2023-02-25T14:23:07;16.80;;;12.87;;
12363;SDS011;6246;50.826;4.712;2023-02-25T14:31:13;15.30;;;12.40;;
12363;SDS011;6246;50.826;4.712;2023-02-25T14:44:11;14.67;;;12.53;;
12363;SDS011;6246;50.826;4.712;2023-02-25T14:46:40;14.90;;;11.53;;
12363;SDS011;6246;50.826;4.712;2023-02-25T14:49:19;14.37;;;11.63;;
12363;SDS011;6246;50.826;4.712;2023-02-25T14:54:41;13.80;;;11.03;;
12363;SDS011;6246;50.826;4.712;2023-02-25T15:05:33;20.97;;;11.43;;
12363;SDS011;6246;50.826;4.712;2023-02-25T15:23:56;12.00;;;9.77;;
12363;SDS011;6246;50.826;4.712;2023-02-25T15:26:26;12.53;;;10.03;;
12363;SDS011;6246;50.826;4.712;2023-02-25T15:29:03;12.00;;;9.77;;
12363;SDS011;6246;50.826;4.712;2023-02-25T15:31:30;13.20;;;10.40;;
12363;SDS011;6246;50.826;4.712;2023-02-25T15:36:43;13.13;;;10.30;;
12363;SDS011;6246;50.826;4.712;2023-02-25T15:39:45;13.30;;;9.70;;
12363;SDS011;6246;50.826;4.712;2023-02-25T15:42:03;11.20;;;8.50;;
12363;SDS011;6246;50.826;4.712;2023-02-25T15:44:33;12.10;;;8.77;;
12363;SDS011;6246;50.826;4.712;2023-02-25T15:47:09;13.27;;;9.50;;
12363;SDS011;6246;50.826;4.712;2023-02-25T15:49:36;12.37;;;8.73;;
12363;SDS011;6246;50.826;4.712;2023-02-25T15:52:03;11.00;;;8.47;;
12363;SDS011;6246;50.826;4.712;2023-02-25T16:07:28;12.97;;;8.27;;
12363;SDS011;6246;50.826;4.712;2023-02-25T16:10:04;10.30;;;7.53;;
12363;SDS011;6246;50.826;4.712;2023-02-25T16:12:31;9.90;;;7.13;;
12363;SDS011;6246;50.826;4.712;2023-02-25T16:14:58;8.93;;;7.00;;
12363;SDS011;6246;50.826;4.712;2023-02-25T16:17:32;9.93;;;7.00;;
12363;SDS011;6246;50.826;4.712;2023-02-25T16:20:13;9.37;;;7.30;;
12363;SDS011;6246;50.826;4.712;2023-02-25T16:22:41;9.20;;;6.30;;
12363;SDS011;6246;50.826;4.712;2023-02-25T16:25:11;12.80;;;6.70;;
12363;SDS011;6246;50.826;4.712;2023-02-25T16:35:47;8.90;;;6.20;;
12363;SDS011;6246;50.826;4.712;2023-02-25T16:38:33;7.43;;;5.63;;
12363;SDS011;6246;50.826;4.712;2023-02-25T16:41:03;9.77;;;6.23;;
12363;SDS011;6246;50.826;4.712;2023-02-25T16:43:30;8.90;;;5.97;;
12363;SDS011;6246;50.826;4.712;2023-02-25T16:45:58;14.87;;;5.77;;
12363;SDS011;6246;50.826;4.712;2023-02-25T16:51:11;10.17;;;5.77;;
12363;SDS011;6246;50.826;4.712;2023-02-25T16:53:41;8.80;;;5.73;;
12363;SDS011;6246;50.826;4.712;2023-02-25T16:56:13;13.10;;;5.50;;
12363;SDS011;6246;50.826;4.712;2023-02-25T16:58:43;12.33;;;6.13;;
12363;SDS011;6246;50.826;4.712;2023-02-25T17:01:22;11.73;;;5.87;;
12363;SDS011;6246;50.826;4.712;2023-02-25T17:03:48;10.47;;;6.20;;
12363;SDS011;6246;50.826;4.712;2023-02-25T17:06:15;8.43;;;5.97;;
12363;SDS011;6246;50.826;4.712;2023-02-25T17:08:46;10.33;;;6.43;;
12363;SDS011;6246;50.826;4.712;2023-02-25T17:11:16;10.23;;;6.47;;
12363;SDS011;6246;50.826;4.712;2023-02-25T17:13:42;12.93;;;7.30;;
12363;SDS011;6246;50.826;4.712;2023-02-25T17:16:16;11.50;;;7.40;;
12363;SDS011;6246;50.826;4.712;2023-02-25T17:18:47;17.23;;;8.57;;
12363;SDS011;6246;50.826;4.712;2023-02-25T17:21:18;13.60;;;8.80;;
12363;SDS011;6246;50.826;4.712;2023-02-25T17:23:47;12.40;;;8.17;;
12363;SDS011;6246;50.826;4.712;2023-02-25T17:26:13;15.17;;;8.80;;
12363;SDS011;6246;50.826;4.712;2023-02-25T17:28:40;12.53;;;8.83;;
12363;SDS011;6246;50.826;4.712;2023-02-25T17:31:15;12.73;;;9.30;;
12363;SDS011;6246;50.826;4.712;2023-02-25T17:33:49;13.67;;;9.40;;
12363;SDS011;6246;50.826;4.712;2023-02-25T17:36:18;15.70;;;9.80;;
12363;SDS011;6246;50.826;4.712;2023-02-25T17:38:44;15.77;;;10.23;;
12363;SDS011;6246;50.826;4.712;2023-02-25T17:41:14;13.83;;;9.60;;
12363;SDS011;6246;50.826;4.712;2023-02-25T17:43:41;12.87;;;9.77;;
12363;SDS011;6246;50.826;4.712;2023-02-25T17:48:42;13.93;;;10.50;;
12363;SDS011;6246;50.826;4.712;2023-02-25T17:51:09;14.70;;;10.73;;
12363;SDS011;6246;50.826;4.712;2023-02-25T17:53:46;14.10;;;10.50;;
12363;SDS011;6246;50.826;4.712;2023-02-25T17:56:18;14.70;;;10.13;;
12363;SDS011;6246;50.826;4.712;2023-02-25T17:58:47;15.33;;;10.70;;
12363;SDS011;6246;50.826;4.712;2023-02-25T18:01:20;17.77;;;10.27;;
12363;SDS011;6246;50.826;4.712;2023-02-25T18:03:47;15.70;;;10.80;;
12363;SDS011;6246;50.826;4.712;2023-02-25T18:06:36;14.47;;;10.50;;
12363;SDS011;6246;50.826;4.712;2023-02-25T18:09:03;14.40;;;10.83;;
12363;SDS011;6246;50.826;4.712;2023-02-25T18:11:33;14.43;;;10.63;;
12363;SDS011;6246;50.826;4.712;2023-02-25T18:16:44;13.40;;;10.47;;
12363;SDS011;6246;50.826;4.712;2023-02-25T18:19:20;14.97;;;10.60;;
12363;SDS011;6246;50.826;4.712;2023-02-25T18:21:48;14.43;;;10.23;;
12363;SDS011;6246;50.826;4.712;2023-02-25T18:24:25;13.87;;;10.30;;
12363;SDS011;6246;50.826;4.712;2023-02-25T18:29:26;13.87;;;10.37;;
12363;SDS011;6246;50.826;4.712;2023-02-25T18:31:52;23.40;;;10.87;;
12363;SDS011;6246;50.826;4.712;2023-02-25T18:34:18;17.83;;;10.23;;
12363;SDS011;6246;50.826;4.712;2023-02-25T18:36:44;13.20;;;9.93;;
12363;SDS011;6246;50.826;4.712;2023-02-25T18:39:10;12.73;;;9.43;;
12363;SDS011;6246;50.826;4.712;2023-02-25T18:41:37;15.07;;;10.20;;
12363;SDS011;6246;50.826;4.712;2023-02-25T18:44:13;13.53;;;9.27;;